Time;durP1;ratioP1;P1;durP2;ratioP2;P2;SDS_P1;SDS_P2;PMS_P1;PMS_P2;Temp;Humidity;BMP_temperature;BMP_pressure;BME280_temperature;BME280_humidity;BME280_pressure;Samples;Min_cycle;Max_cycle;Signal;HPM_P1;HPM_P2
2020/12/11 00:01:35;;;;;;;62.93;40.97;;;;;;;2.48;71.21;99469.41;124658;1095;104655;-73
2020/12/11 00:04:03;;;;;;;65.90;41.93;;;;;;;2.48;71.95;99469.41;124623;1095;104519;-73
2020/12/11 00:06:32;;;;;;;58.15;36.10;;;;;;;2.48;71.82;99472.05;124639;1095;104659;-75
2020/12/11 00:09:00;;;;;;;51.87;29.30;;;;;;;2.52;72.83;99470.84;124616;1095;104598;-74
2020/12/11 00:11:29;;;;;;;47.30;27.17;;;;;;;2.51;71.34;99461.28;124570;1096;104646;-74
2020/12/11 00:13:58;;;;;;;48.30;25.80;;;;;;;2.50;72.70;99459.59;124670;1095;104493;-74
2020/12/11 00:16:26;;;;;;;56.23;38.80;;;;;;;2.50;72.22;99449.06;124662;1095;104660;-75
2020/12/11 00:18:55;;;;;;;54.83;36.03;;;;;;;2.47;71.18;99451.95;124660;1096;104935;-74
2020/12/11 00:21:23;;;;;;;63.93;47.10;;;;;;;2.44;72.09;99462.72;124770;1096;104598;-73
2020/12/11 00:23:51;;;;;;;54.63;34.47;;;;;;;2.43;72.20;99467.16;124585;1095;104493;-74
2020/12/11 00:26:19;;;;;;;52.23;30.00;;;;;;;2.44;71.73;99470.62;124670;1095;104595;-74
2020/12/11 00:28:48;;;;;;;46.27;27.93;;;;;;;2.45;71.77;99469.67;124631;1095;104674;-75
2020/12/11 00:31:23;;;;;;;44.05;25.75;;;;;;;2.45;71.79;99472.31;124600;1095;104561;-75
2020/12/11 00:33:51;;;;;;;44.40;24.30;;;;;;;2.49;71.44;99476.38;124623;1095;104528;-75
2020/12/11 00:36:19;;;;;;;75.03;46.77;;;;;;;2.45;71.36;99482.84;124626;1095;104663;-75
2020/12/11 00:38:48;;;;;;;59.63;32.10;;;;;;;2.41;72.13;99478.77;124624;1095;104709;-75
2020/12/11 00:41:17;;;;;;;52.67;28.37;;;;;;;2.40;71.85;99479.72;124605;1095;104595;-75
2020/12/11 00:43:45;;;;;;;48.17;28.07;;;;;;;2.38;71.83;99484.27;124630;1095;104595;-75
2020/12/11 00:46:14;;;;;;;49.53;31.27;;;;;;;2.38;72.09;99487.73;124669;1095;104663;-76
2020/12/11 00:48:42;;;;;;;49.37;29.03;;;;;;;2.34;72.15;99489.77;124637;1095;104586;-75
2020/12/11 00:51:11;;;;;;;46.17;25.07;;;;;;;2.33;73.11;99479.38;124602;1095;104496;-73
2020/12/11 00:53:42;;;;;;;49.47;27.10;;;;;;;2.34;72.92;99484.50;124600;1095;104513;-74
2020/12/11 00:56:11;;;;;;;42.77;24.73;;;;;;;2.38;71.44;99484.27;124706;1095;104890;-74
2020/12/11 00:58:40;;;;;;;45.13;25.27;;;;;;;2.41;71.58;99505.11;124604;1095;104589;-75
2020/12/11 01:01:08;;;;;;;44.53;23.57;;;;;;;2.38;71.58;99492.99;124618;1095;104497;-74
2020/12/11 01:03:37;;;;;;;40.07;21.30;;;;;;;2.36;72.46;99501.01;124591;1096;104595;-74
2020/12/11 01:06:05;;;;;;;39.13;19.90;;;;;;;2.38;72.76;99492.17;124648;1095;104574;-76
2020/12/11 01:08:34;;;;;;;36.27;20.73;;;;;;;2.38;72.56;99500.06;124618;1095;104718;-76
2020/12/11 01:11:02;;;;;;;39.67;20.67;;;;;;;2.39;72.47;99492.05;124620;1095;105096;-76
2020/12/11 01:13:30;;;;;;;56.00;30.47;;;;;;;2.42;72.47;99493.59;124598;1095;105012;-71
2020/12/11 01:15:59;;;;;;;54.07;29.87;;;;;;;2.41;71.70;99492.77;124712;1095;104730;-75
2020/12/11 01:18:27;;;;;;;48.13;25.90;;;;;;;2.42;72.23;99491.80;124604;1095;105007;-76
2020/12/11 01:20:55;;;;;;;105.80;64.97;;;;;;;2.42;73.35;99493.59;124623;1095;104593;-75
2020/12/11 01:23:23;;;;;;;176.73;118.00;;;;;;;2.39;72.95;99492.05;124604;1095;104528;-76
2020/12/11 01:25:52;;;;;;;86.67;44.93;;;;;;;2.40;72.49;99484.98;124702;1096;104773;-73
2020/12/11 01:28:20;;;;;;;95.13;54.63;;;;;;;2.39;72.98;99488.56;124632;1095;104589;-74
2020/12/11 01:30:49;;;;;;;62.63;33.27;;;;;;;2.41;72.29;99490.14;124570;1095;104497;-74
2020/12/11 01:33:17;;;;;;;56.00;30.43;;;;;;;2.45;72.95;99488.11;124639;1095;104568;-73
2020/12/11 01:35:45;;;;;;;56.03;29.80;;;;;;;2.47;73.27;99488.82;124642;1095;104647;-74
2020/12/11 01:38:14;;;;;;;108.63;65.17;;;;;;;2.48;72.22;99490.48;124617;1095;104596;-75
2020/12/11 01:40:44;;;;;;;65.13;33.53;;;;;;;2.49;72.61;99498.27;124637;1095;104487;-74
2020/12/11 01:43:12;;;;;;;71.20;36.27;;;;;;;2.51;73.34;99496.34;124645;1095;104513;-75
2020/12/11 01:45:41;;;;;;;46.63;25.27;;;;;;;2.51;72.55;99500.78;124653;1096;104641;-74
2020/12/11 01:48:09;;;;;;;46.07;21.83;;;;;;;2.52;71.96;99502.45;124704;1095;104604;-73
2020/12/11 01:50:39;;;;;;;46.77;26.80;;;;;;;2.54;72.71;99492.63;124617;1095;104502;-75
2020/12/11 01:53:09;;;;;;;65.97;38.13;;;;;;;2.56;72.53;99496.00;124581;1095;104551;-76
2020/12/11 01:55:41;;;;;;;66.43;34.93;;;;;;;2.55;73.38;99489.87;124653;1095;104727;-74
2020/12/11 01:58:18;;;;;;;58.77;31.97;;;;;;;2.58;72.82;99488.82;124602;1095;104971;-76
2020/12/11 02:00:50;;;;;;;53.03;25.33;;;;;;;2.59;72.11;99493.11;124637;1095;104574;-73
2020/12/11 02:03:18;;;;;;;42.73;22.60;;;;;;;2.57;72.41;99484.50;124654;1095;104606;-75
2020/12/11 02:05:46;;;;;;;45.90;24.53;;;;;;;2.56;72.90;99482.84;124664;1095;104669;-76
2020/12/11 02:08:15;;;;;;;50.03;26.43;;;;;;;2.56;73.51;99488.11;124636;1095;104583;-73
2020/12/11 02:10:47;;;;;;;47.73;25.63;;;;;;;2.57;71.96;99468.70;124611;1095;104490;-75
2020/12/11 02:13:14;;;;;;;;;;;;;;;2.56;72.57;99472.30;124741;1095;104515;-74
2020/12/11 02:15:42;;;;;;;43.85;21.60;;;;;;;2.55;73.37;99470.61;124703;1095;104634;-74
2020/12/11 02:18:11;;;;;;;49.47;28.53;;;;;;;2.58;72.37;99473.02;124616;1096;104548;-76
2020/12/11 02:20:39;;;;;;;53.00;30.77;;;;;;;2.56;72.05;99467.04;124608;1095;104576;-76
2020/12/11 02:23:07;;;;;;;56.50;31.97;;;;;;;2.54;72.77;99474.19;124627;1096;104542;-74
2020/12/11 02:25:35;;;;;;;45.73;24.80;;;;;;;2.52;72.95;99476.11;124658;1095;104692;-75
2020/12/11 02:28:04;;;;;;;43.83;20.90;;;;;;;2.50;72.12;99467.50;124589;1095;104717;-74
2020/12/11 02:30:32;;;;;;;42.10;22.07;;;;;;;2.49;72.21;99466.67;124616;1095;104512;-75
2020/12/11 02:33:00;;;;;;;59.63;36.20;;;;;;;2.50;73.23;99462.23;124638;1095;104577;-76
2020/12/11 02:35:29;;;;;;;52.40;26.23;;;;;;;2.51;72.57;99475.28;124656;1095;104650;-75
2020/12/11 02:37:57;;;;;;;50.00;24.93;;;;;;;2.54;72.92;99472.42;124612;1096;104629;-75
2020/12/11 02:40:25;;;;;;;65.57;34.50;;;;;;;2.57;72.32;99467.87;124743;1096;104538;-75
2020/12/11 02:42:53;;;;;;;51.60;25.17;;;;;;;2.56;72.06;99482.84;124626;1095;104513;-75
2020/12/11 02:45:22;;;;;;;55.37;27.40;;;;;;;2.55;72.47;99481.15;124680;1095;104762;-75
2020/12/11 02:47:50;;;;;;;49.47;23.67;;;;;;;2.57;72.97;99479.23;124614;1095;104990;-78
2020/12/11 02:50:18;;;;;;;44.30;21.37;;;;;;;2.60;72.51;99476.37;124633;1095;104509;-76
2020/12/11 02:52:46;;;;;;;45.27;22.60;;;;;;;2.61;72.53;99464.03;124603;1095;104586;-77
2020/12/11 02:55:15;;;;;;;48.17;23.10;;;;;;;2.63;72.91;99468.20;124685;1095;104605;-77
2020/12/11 02:57:43;;;;;;;44.23;21.83;;;;;;;2.62;72.92;99474.45;124654;1095;104587;-77
2020/12/11 03:00:11;;;;;;;46.93;21.97;;;;;;;2.62;72.51;99476.22;124651;1095;104522;-77
2020/12/11 03:02:40;;;;;;;54.50;22.53;;;;;;;2.59;72.91;99477.31;124606;1096;104545;-76
2020/12/11 03:05:08;;;;;;;40.43;19.13;;;;;;;2.58;73.08;99474.80;124646;1095;104714;-75
2020/12/11 03:07:36;;;;;;;43.90;19.93;;;;;;;2.56;73.74;99482.84;124656;1095;104604;-75
2020/12/11 03:10:05;;;;;;;47.60;21.40;;;;;;;2.54;72.88;99485.59;124662;1095;104606;-73
2020/12/11 03:12:33;;;;;;;47.90;22.37;;;;;;;2.55;72.96;99484.61;124816;1096;104496;-77
2020/12/11 03:15:01;;;;;;;47.53;22.10;;;;;;;2.62;73.15;99473.59;124771;1095;105166;-81
2020/12/11 03:17:29;;;;;;;46.07;21.70;;;;;;;2.65;72.67;99476.82;124656;1095;104955;-74
2020/12/11 03:19:58;;;;;;;42.30;20.35;;;;;;;2.65;73.59;99475.98;124574;1095;104598;-75
2020/12/11 03:22:26;;;;;;;47.10;22.43;;;;;;;2.64;72.57;99477.80;124616;1095;104509;-74
2020/12/11 03:24:54;;;;;;;46.37;20.47;;;;;;;2.61;72.51;99475.39;124738;1095;104708;-75
2020/12/11 03:27:22;;;;;;;49.03;21.47;;;;;;;2.61;72.64;99471.93;124626;1095;104494;-75
2020/12/11 03:29:51;;;;;;;41.60;20.53;;;;;;;2.64;73.74;99475.16;124600;1095;104589;-76
2020/12/11 03:32:19;;;;;;;43.47;19.63;;;;;;;2.64;73.00;99472.53;124651;1096;104593;-76
2020/12/11 03:34:47;;;;;;;48.25;21.05;;;;;;;2.66;72.54;99467.97;124644;1095;104612;-75
2020/12/11 03:37:16;;;;;;;45.80;22.70;;;;;;;2.67;73.72;99467.00;124624;1095;104659;-75
2020/12/11 03:39:44;;;;;;;49.90;23.43;;;;;;;2.68;72.22;99471.32;124616;1095;104557;-76
2020/12/11 03:42:13;;;;;;;51.50;26.30;;;;;;;2.68;73.28;99475.76;124639;1095;104531;-78
2020/12/11 03:44:41;;;;;;;65.30;32.67;;;;;;;2.65;73.36;99475.98;124680;1095;104650;-76
2020/12/11 03:47:09;;;;;;;54.20;26.90;;;;;;;2.64;72.77;99475.16;124602;1095;104938;-75
2020/12/11 03:49:38;;;;;;;44.07;21.77;;;;;;;2.65;72.92;99474.19;124615;1095;104577;-73
2020/12/11 03:52:06;;;;;;;43.00;20.73;;;;;;;2.70;73.01;99479.94;124694;1095;104510;-74
2020/12/11 03:54:34;;;;;;;43.07;20.57;;;;;;;2.72;73.11;99482.45;124652;1095;104688;-72
2020/12/11 03:57:02;;;;;;;46.33;22.43;;;;;;;2.75;72.96;99477.78;124657;1096;104587;-74
2020/12/11 03:59:31;;;;;;;47.00;23.83;;;;;;;2.79;72.52;99480.16;124700;1095;104487;-73
2020/12/11 04:01:59;;;;;;;137.07;62.40;;;;;;;2.77;72.42;99479.44;124662;1095;104602;-74
2020/12/11 04:04:27;;;;;;;120.67;51.00;;;;;;;2.70;73.67;99484.38;124750;1095;104577;-72
2020/12/11 04:06:55;;;;;;;102.43;42.00;;;;;;;2.66;72.60;99481.14;124757;1096;104633;-72
2020/12/11 04:09:24;;;;;;;188.80;79.83;;;;;;;2.65;72.55;99478.62;124749;1095;104467;-73
2020/12/11 04:11:52;;;;;;;232.03;110.00;;;;;;;2.63;73.33;99478.73;124673;1095;104624;-74
2020/12/11 04:14:20;;;;;;;119.30;51.10;;;;;;;2.65;72.88;99482.09;124601;1095;104663;-76
2020/12/11 04:16:51;;;;;;;250.83;121.23;;;;;;;2.68;73.12;99476.59;124621;1095;104583;-75
2020/12/11 04:19:19;;;;;;;107.60;49.23;;;;;;;2.69;73.61;99477.42;124638;1095;104599;-75
2020/12/11 04:21:52;;;;;;;114.77;55.60;;;;;;;2.72;73.54;99467.48;124679;1095;105160;-78
2020/12/11 04:24:21;;;;;;;104.47;52.43;;;;;;;2.69;72.91;99472.98;124691;1095;104688;-75
2020/12/11 04:26:50;;;;;;;180.70;98.20;;;;;;;2.66;73.67;99477.68;124691;1095;104931;-77
2020/12/11 04:29:18;;;;;;;111.45;53.35;;;;;;;2.68;72.98;99478.39;124584;1095;104579;-75
2020/12/11 04:31:54;;;;;;;103.73;50.20;;;;;;;2.68;72.85;99483.66;124604;1095;104506;-76
2020/12/11 04:34:23;;;;;;;134.40;79.10;;;;;;;2.67;73.30;99481.97;124679;1095;104650;-77
2020/12/11 04:36:53;;;;;;;115.67;66.40;;;;;;;2.63;73.34;99478.73;124596;1096;104558;-78
2020/12/11 04:39:22;;;;;;;125.57;77.73;;;;;;;2.63;73.72;99476.11;124587;1096;104487;-77
2020/12/11 04:41:52;;;;;;;81.90;40.97;;;;;;;2.63;72.56;99481.38;124621;1095;104516;-75
2020/12/11 04:44:21;;;;;;;74.75;38.05;;;;;;;2.64;72.90;99477.80;124644;1095;104663;-75
2020/12/11 04:46:50;;;;;;;79.90;44.65;;;;;;;2.60;72.09;99479.00;124675;1095;104512;-75
2020/12/11 04:49:19;;;;;;;59.80;29.43;;;;;;;2.60;72.96;99483.41;124688;1095;104544;-77
2020/12/11 04:51:52;;;;;;;57.57;31.70;;;;;;;2.60;73.54;99494.80;124565;1095;104593;-75
2020/12/11 04:54:22;;;;;;;72.00;47.77;;;;;;;2.61;72.86;99478.02;124680;1095;104592;-76
2020/12/11 04:56:51;;;;;;;78.40;45.13;;;;;;;2.63;72.63;99483.17;124659;1096;104932;-77
2020/12/11 04:59:20;;;;;;;134.87;92.80;;;;;;;2.62;72.13;99486.75;124660;1095;104625;-77
2020/12/11 05:01:48;;;;;;;108.00;68.00;;;;;;;2.64;72.92;99483.06;124603;1095;104490;-76
2020/12/11 05:04:17;;;;;;;89.37;53.10;;;;;;;2.62;72.59;99482.34;124631;1095;104625;-77
2020/12/11 05:06:45;;;;;;;68.93;39.70;;;;;;;2.57;72.85;99495.03;124646;1095;104653;-77
2020/12/11 05:09:18;;;;;;;70.10;40.87;;;;;;;2.57;72.98;99489.77;124555;1095;104512;-75
2020/12/11 05:11:48;;;;;;;71.77;47.37;;;;;;;2.60;72.94;99492.17;124600;1095;104557;-76
2020/12/11 05:14:24;;;;;;;73.65;41.70;;;;;;;2.63;72.57;99484.00;124680;1095;105011;-75
2020/12/11 05:17:01;;;;;;;54.87;29.57;;;;;;;2.67;73.28;99487.23;124743;1095;104566;-75
2020/12/11 05:19:30;;;;;;;80.50;54.73;;;;;;;2.64;72.86;99485.70;124630;1095;104509;-75
2020/12/11 05:22:11;;;;;;;74.77;40.87;;;;;;;2.64;73.31;99485.70;124645;1095;104570;-75
2020/12/11 05:24:44;;;;;;;55.73;26.93;;;;;;;2.68;73.63;99487.12;124683;1095;104667;-76
2020/12/11 05:27:36;;;;;;;50.57;25.97;;;;;;;2.68;73.73;99481.86;124615;1095;104566;-76
2020/12/11 05:30:17;;;;;;;;;;;;;;;2.68;72.91;99495.03;124674;1095;104596;-75
2020/12/11 05:32:47;;;;;;;40.63;19.97;;;;;;;2.70;73.31;99495.73;124645;1095;104564;-74
2020/12/11 05:35:25;;;;;;;41.37;20.83;;;;;;;2.71;73.74;99502.70;124699;1095;104631;-75
2020/12/11 05:37:56;;;;;;;46.87;22.13;;;;;;;2.72;72.10;99488.55;124659;1095;104529;-75
2020/12/11 05:40:29;;;;;;;44.13;21.73;;;;;;;2.78;72.92;99496.94;124677;1095;104599;-75
2020/12/11 05:43:14;;;;;;;44.67;21.50;;;;;;;2.81;72.49;99499.31;124655;1095;104595;-75
2020/12/11 05:45:50;;;;;;;47.73;22.53;;;;;;;2.83;72.86;99506.16;124714;1095;104647;-76
2020/12/11 05:48:19;;;;;;;51.50;26.10;;;;;;;2.87;72.09;99506.75;124645;1095;104575;-75
2020/12/11 05:50:47;;;;;;;47.87;24.07;;;;;;;2.88;72.08;99500.50;124636;1095;104574;-75
2020/12/11 05:53:16;;;;;;;42.00;18.80;;;;;;;2.85;73.32;99508.64;124644;1095;104507;-76
2020/12/11 05:55:44;;;;;;;41.47;20.20;;;;;;;2.86;73.53;99515.59;124685;1095;104637;-75
2020/12/11 05:58:12;;;;;;;40.77;20.50;;;;;;;2.88;72.07;99516.31;124635;1095;104489;-78
2020/12/11 06:00:41;;;;;;;45.87;21.13;;;;;;;2.90;72.63;99519.66;124601;1095;104596;-74
2020/12/11 06:03:10;;;;;;;51.70;26.53;;;;;;;2.90;72.83;99512.59;124679;1089;104596;-74
2020/12/11 06:05:39;;;;;;;50.35;24.30;;;;;;;2.91;71.90;99518.72;124613;1096;104660;-74
2020/12/11 06:08:11;;;;;;;58.10;28.90;;;;;;;2.89;72.82;99518.83;124614;1095;104603;-76
2020/12/11 06:10:39;;;;;;;;;;;;;;;2.86;73.59;99518.23;124647;1095;104523;-75
2020/12/11 06:13:08;;;;;;;144.57;78.90;;;;;;;2.83;72.47;99513.20;124641;1095;104509;-77
2020/12/11 06:15:43;;;;;;;73.20;31.23;;;;;;;2.80;71.96;99516.09;124625;1095;104679;-75
2020/12/11 06:18:17;;;;;;;54.10;24.97;;;;;;;2.79;73.27;99510.00;124607;1095;104513;-75
2020/12/11 06:20:48;;;;;;;52.70;26.00;;;;;;;2.85;72.82;99516.55;124631;1094;104512;-75
2020/12/11 06:23:24;;;;;;;52.23;26.93;;;;;;;2.90;72.91;99519.66;124606;1095;104561;-76
2020/12/11 06:25:54;;;;;;;64.80;33.80;;;;;;;2.94;73.27;99516.68;124680;1095;104516;-76
2020/12/11 06:28:41;;;;;;;62.67;32.10;;;;;;;2.98;73.16;99517.24;124619;1095;104771;-75
2020/12/11 06:31:12;;;;;;;58.47;31.10;;;;;;;3.02;73.06;99515.20;124669;1095;104519;-76
2020/12/11 06:33:42;;;;;;;59.63;29.10;;;;;;;3.04;71.89;99508.88;124562;1096;104647;-75
2020/12/11 06:36:11;;;;;;;62.00;29.33;;;;;;;3.00;72.82;99512.69;124649;1095;104574;-76
2020/12/11 06:38:45;;;;;;;51.30;26.33;;;;;;;2.98;73.48;99511.97;124577;1095;104609;-76
2020/12/11 06:41:15;;;;;;;57.40;27.33;;;;;;;2.95;73.44;99518.34;124628;1095;104493;-75
2020/12/11 06:43:45;;;;;;;75.40;37.45;;;;;;;2.93;72.90;99519.43;124611;1095;104506;-75
2020/12/11 06:46:19;;;;;;;70.73;37.50;;;;;;;2.92;71.99;99512.47;124681;1095;104664;-78
2020/12/11 06:49:05;;;;;;;96.87;53.20;;;;;;;2.92;72.83;99517.73;124610;1095;104603;-77
2020/12/11 06:51:35;;;;;;;108.25;66.45;;;;;;;2.91;73.53;99526.63;124729;1088;104512;-77
2020/12/11 06:54:04;;;;;;;97.45;52.85;;;;;;;2.90;73.18;99512.59;124654;1096;104596;-75
2020/12/11 06:56:42;;;;;;;80.30;42.05;;;;;;;2.91;72.75;99516.91;124651;1096;104663;-75
2020/12/11 06:59:25;;;;;;;65.40;29.90;;;;;;;2.90;73.42;99512.59;124650;1096;105035;-78
2020/12/11 07:01:54;;;;;;;69.67;35.87;;;;;;;2.92;73.72;99499.30;124614;1095;104538;-77
2020/12/11 07:04:23;;;;;;;82.33;46.80;;;;;;;2.95;73.57;99499.06;124634;1095;104496;-78
2020/12/11 07:06:53;;;;;;;65.97;33.57;;;;;;;2.97;73.33;99504.22;124741;1090;104675;-75
2020/12/11 07:09:22;;;;;;;95.30;50.93;;;;;;;2.98;72.79;99506.70;124663;1095;104592;-77
2020/12/11 07:11:50;;;;;;;73.80;34.77;;;;;;;2.98;72.82;99503.23;124607;1095;104522;-75
2020/12/11 07:14:26;;;;;;;109.20;64.93;;;;;;;2.98;72.47;99501.44;124612;1095;104491;-78
2020/12/11 07:16:54;;;;;;;89.63;42.23;;;;;;;2.98;73.21;99501.44;124643;1095;104622;-78
2020/12/11 07:19:22;;;;;;;89.80;48.23;;;;;;;2.98;72.06;99501.44;124587;1095;104615;-77
2020/12/11 07:21:51;;;;;;;80.43;44.30;;;;;;;2.98;72.44;99498.80;124617;1095;104596;-76
2020/12/11 07:24:20;;;;;;;107.67;61.33;;;;;;;3.00;72.89;99507.41;124587;1095;104487;-75
2020/12/11 07:26:49;;;;;;;82.50;41.70;;;;;;;2.98;72.47;99498.80;124704;1095;104602;-77
2020/12/11 07:29:17;;;;;;;110.93;61.77;;;;;;;2.99;72.57;99489.95;124646;1095;104611;-77
2020/12/11 07:31:46;;;;;;;102.07;48.73;;;;;;;2.98;72.51;99493.53;124577;1095;104516;-78
2020/12/11 07:34:16;;;;;;;123.97;71.23;;;;;;;3.03;72.68;99491.37;124588;1095;104497;-76
2020/12/11 07:36:45;;;;;;;127.35;72.95;;;;;;;3.01;72.49;99498.56;124651;1095;104743;-78
2020/12/11 07:39:15;;;;;;;116.65;65.20;;;;;;;2.99;72.91;99499.66;124576;1095;104590;-76
2020/12/11 07:41:45;;;;;;;87.30;46.43;;;;;;;2.97;73.22;99504.22;124635;1095;104512;-76
2020/12/11 07:44:23;;;;;;;92.65;48.50;;;;;;;2.97;72.64;99507.68;124616;1095;104557;-77
2020/12/11 07:46:52;;;;;;;92.33;50.73;;;;;;;3.00;73.47;99507.41;124622;1095;104669;-77
2020/12/11 07:49:20;;;;;;;78.93;39.03;;;;;;;3.04;73.29;99508.02;124677;1095;104513;-76
2020/12/11 07:51:51;;;;;;;74.03;34.60;;;;;;;3.05;73.68;99504.42;124717;1090;104605;-77
2020/12/11 07:54:20;;;;;;;109.15;66.35;;;;;;;3.04;72.92;99503.60;124697;1095;104596;-77
2020/12/11 07:56:48;;;;;;;92.07;45.73;;;;;;;3.03;72.63;99507.18;124623;1095;104589;-76
2020/12/11 07:59:17;;;;;;;74.97;35.37;;;;;;;3.00;73.36;99501.31;124616;1095;104593;-76
2020/12/11 08:01:46;;;;;;;73.83;37.97;;;;;;;2.97;73.46;99515.59;124576;1095;104609;-79
2020/12/11 08:04:15;;;;;;;94.63;50.80;;;;;;;2.99;73.51;99516.30;124625;1095;104634;-77
2020/12/11 08:06:58;;;;;;;83.57;42.30;;;;;;;3.00;73.43;99517.12;124617;1095;104737;-75
2020/12/11 08:09:30;;;;;;;75.30;38.43;;;;;;;2.97;72.76;99523.49;124659;1095;104981;-75
2020/12/11 08:12:11;;;;;;;71.70;35.15;;;;;;;2.99;73.26;99521.57;124659;1095;104497;-75
2020/12/11 08:14:40;;;;;;;96.13;51.37;;;;;;;3.00;73.37;99512.69;124644;1096;104490;-76
2020/12/11 08:17:10;;;;;;;65.63;31.17;;;;;;;3.00;72.44;99517.95;124612;1096;104893;-74
2020/12/11 08:19:39;;;;;;;61.77;28.97;;;;;;;2.99;73.99;99520.73;124588;1095;104593;-75
2020/12/11 08:22:15;;;;;;;53.67;26.57;;;;;;;3.00;73.28;99512.69;124591;1095;104576;-76
2020/12/11 08:24:44;;;;;;;105.07;72.27;;;;;;;3.01;73.94;99522.28;124624;1095;104531;-74
2020/12/11 08:27:21;;;;;;;84.60;51.30;;;;;;;3.03;73.71;99516.89;124660;1095;104682;-75
2020/12/11 08:30:08;;;;;;;84.20;52.00;;;;;;;3.04;72.92;99519.41;124694;1090;104596;-75
2020/12/11 08:32:37;;;;;;;88.60;51.03;;;;;;;3.08;73.71;99527.88;124574;1095;104566;-76
2020/12/11 08:35:15;;;;;;;79.60;45.15;;;;;;;3.12;72.66;99519.63;124586;1096;104516;-76
2020/12/11 08:37:53;;;;;;;96.47;61.47;;;;;;;3.12;72.86;99522.27;124685;1095;104625;-76
2020/12/11 08:40:22;;;;;;;187.37;131.17;;;;;;;3.12;72.89;99516.16;124630;1095;104586;-76
2020/12/11 08:43:14;;;;;;;129.27;80.30;;;;;;;3.17;72.81;99521.05;124556;1095;104908;-77
2020/12/11 08:45:50;;;;;;;;;;;;;;;3.17;73.63;99518.41;124649;1095;104590;-76
2020/12/11 08:48:41;;;;;;;94.30;57.87;;;;;;;3.22;73.69;99521.53;124661;1095;104595;-76
2020/12/11 08:51:10;;;;;;;84.63;51.33;;;;;;;3.25;72.84;99513.34;124615;1095;104599;-75
2020/12/11 08:53:50;;;;;;;88.97;56.03;;;;;;;3.28;72.86;99521.02;124585;1095;104548;-76
2020/12/11 08:56:19;;;;;;;69.67;40.50;;;;;;;3.25;72.72;99515.98;124746;1095;104947;-76
2020/12/11 08:58:47;;;;;;;75.03;47.27;;;;;;;3.25;73.88;99513.34;124667;1095;104689;-75
2020/12/11 09:01:16;;;;;;;54.75;29.00;;;;;;;3.28;73.10;99513.94;124656;1095;104570;-75
2020/12/11 09:03:44;;;;;;;52.83;27.73;;;;;;;3.28;73.07;99506.03;124627;1095;104529;-73
2020/12/11 09:06:12;;;;;;;136.93;90.37;;;;;;;3.29;72.83;99504.23;124616;1095;104551;-74
2020/12/11 09:08:40;;;;;;;74.27;43.70;;;;;;;3.31;73.89;99497.03;124702;1095;104628;-77
2020/12/11 09:11:09;;;;;;;74.40;44.07;;;;;;;3.33;73.73;99495.12;124598;1095;104566;-76
2020/12/11 09:13:37;;;;;;;59.07;31.23;;;;;;;3.36;72.69;99486.95;124611;1096;104564;-76
2020/12/11 09:16:05;;;;;;;58.20;31.73;;;;;;;3.39;73.65;99493.77;124659;1096;104506;-76
2020/12/11 09:18:33;;;;;;;39.43;20.93;;;;;;;3.44;73.22;99489.78;124631;1095;104605;-78
2020/12/11 09:21:02;;;;;;;41.03;21.30;;;;;;;3.46;73.03;99487.86;124612;1095;104871;-76
2020/12/11 09:23:30;;;;;;;61.30;36.53;;;;;;;3.44;72.91;99489.78;124601;1095;104532;-75
2020/12/11 09:25:58;;;;;;;71.97;47.63;;;;;;;3.50;73.62;99477.89;124597;1095;104519;-77
2020/12/11 09:28:26;;;;;;;63.75;41.05;;;;;;;3.53;73.11;99472.38;124642;1095;104647;-77
2020/12/11 09:30:55;;;;;;;57.60;34.65;;;;;;;3.57;73.69;99479.07;124620;1090;104514;-75
2020/12/11 09:33:25;;;;;;;57.63;33.90;;;;;;;3.61;72.76;99477.02;124664;1090;104928;-77
2020/12/11 09:35:54;;;;;;;54.27;28.47;;;;;;;3.64;72.55;99474.13;124602;1095;104558;-78
2020/12/11 09:38:23;;;;;;;46.87;26.50;;;;;;;3.62;72.70;99470.76;124697;1095;104666;-77
2020/12/11 09:40:52;;;;;;;56.93;35.03;;;;;;;3.64;72.82;99467.05;124627;1095;104659;-77
2020/12/11 09:46:20;;;;;;;53.97;29.70;;;;;;;3.72;73.03;99461.13;124699;1090;104497;-76
2020/12/11 09:48:52;;;;;;;49.90;28.47;;;;;;;3.76;73.37;99459.08;124674;1095;104675;-76
2020/12/11 09:51:45;;;;;;;45.93;25.13;;;;;;;3.79;73.42;99456.16;124628;1095;104596;-76
2020/12/11 09:54:17;;;;;;;44.47;23.73;;;;;;;3.83;73.49;99455.79;124602;1095;104996;-76
2020/12/11 09:56:46;;;;;;;59.73;34.20;;;;;;;3.84;72.97;99456.62;124601;1095;104614;-78
2020/12/11 09:59:17;;;;;;;46.97;25.43;;;;;;;3.81;73.37;99449.81;124633;1095;104599;-78
2020/12/11 10:02:08;;;;;;;59.37;40.47;;;;;;;3.82;73.11;99450.63;124626;1095;104560;-76
2020/12/11 10:04:36;;;;;;;50.53;30.53;;;;;;;3.87;73.41;99451.92;124584;1095;104496;-79
2020/12/11 10:07:05;;;;;;;51.30;33.80;;;;;;;3.88;72.44;99450.94;124611;1095;104592;-76
2020/12/11 10:09:33;;;;;;;94.33;60.20;;;;;;;3.89;72.73;99452.63;124621;1095;104913;-74
2020/12/11 10:12:03;;;;;;;65.20;40.83;;;;;;;3.89;72.65;99452.63;124631;1095;104584;-78
2020/12/11 10:14:33;;;;;;;54.43;34.37;;;;;;;3.91;72.67;99452.50;124597;1095;104522;-73
2020/12/11 10:17:01;;;;;;;48.95;27.65;;;;;;;3.91;73.22;99445.41;124560;1095;104574;-78
2020/12/11 10:19:30;;;;;;;104.60;74.30;;;;;;;3.87;72.43;99451.92;124635;1095;104673;-76
2020/12/11 10:21:58;;;;;;;169.27;129.47;;;;;;;3.86;73.05;99458.15;124599;1095;105009;-77
2020/12/11 10:24:26;;;;;;;148.23;99.77;;;;;;;3.89;72.71;99452.63;124603;1095;104608;-76
2020/12/11 10:26:54;;;;;;;114.37;74.07;;;;;;;3.89;72.96;99452.63;124779;1095;104604;-78
2020/12/11 10:29:23;;;;;;;163.70;107.27;;;;;;;3.95;72.69;99445.99;124655;1095;104691;-75
2020/12/11 10:31:51;;;;;;;111.70;67.60;;;;;;;3.99;72.99;99447.40;124608;1095;104592;-76
2020/12/11 10:34:20;;;;;;;92.50;55.40;;;;;;;3.97;72.92;99440.59;124619;1095;104494;-80
2020/12/11 10:36:48;;;;;;;160.97;100.93;;;;;;;3.99;72.93;99442.13;124619;1095;104523;-80
2020/12/11 10:39:16;;;;;;;68.03;35.23;;;;;;;3.99;73.19;99436.02;124649;1095;104669;-76
2020/12/11 10:41:44;;;;;;;65.33;37.83;;;;;;;4.00;72.84;99435.86;124639;1095;104583;-74
2020/12/11 10:44:13;;;;;;;128.40;87.93;;;;;;;4.00;72.47;99437.67;124593;1096;104503;-74
2020/12/11 10:46:42;;;;;;;149.63;109.80;;;;;;;4.01;73.11;99437.55;124650;1095;104602;-74
2020/12/11 10:49:10;;;;;;;176.57;135.03;;;;;;;4.04;72.76;99437.30;124654;1095;104625;-75
2020/12/11 10:51:38;;;;;;;133.13;95.93;;;;;;;4.06;73.18;99434.50;124562;1095;104729;-76
2020/12/11 10:54:06;;;;;;;95.73;68.37;;;;;;;4.07;72.86;99438.83;124593;1095;104596;-75
2020/12/11 10:56:35;;;;;;;93.57;67.27;;;;;;;4.06;72.55;99431.86;124742;1095;104596;-74
2020/12/11 10:59:03;;;;;;;74.80;50.80;;;;;;;4.09;73.11;99439.53;124609;1095;105004;-76
2020/12/11 11:01:31;;;;;;;52.13;29.60;;;;;;;4.09;73.17;99428.97;124580;1095;104932;-75
2020/12/11 11:04:00;;;;;;;72.87;54.23;;;;;;;4.09;72.90;99424.52;124597;1096;104567;-73
2020/12/11 11:06:32;;;;;;;58.30;38.05;;;;;;;4.12;73.17;99420.80;124575;1095;104973;-75
2020/12/11 11:09:14;;;;;;;60.98;38.80;;;;;;;4.16;72.72;99413.42;124650;1095;104532;-74
2020/12/11 11:11:44;;;;;;;55.65;31.90;;;;;;;4.21;72.99;99409.41;124588;1095;104561;-74
2020/12/11 11:14:32;;;;;;;47.87;26.87;;;;;;;4.21;72.73;99404.13;124606;1095;104592;-76
2020/12/11 11:19:55;;;;;;;56.73;32.97;;;;;;;4.18;72.77;99400.95;124645;1095;104673;-77
2020/12/11 11:22:38;;;;;;;43.05;24.45;;;;;;;4.14;72.95;99408.30;124632;1095;104948;-75
2020/12/11 11:27:54;;;;;;;46.63;26.10;;;;;;;4.14;72.77;99405.66;124568;1095;104557;-75
2020/12/11 11:30:23;;;;;;;63.60;39.25;;;;;;;4.17;73.26;99415.11;124669;1095;104574;-75
2020/12/11 11:32:51;;;;;;;77.87;48.67;;;;;;;4.18;73.06;99417.62;124648;1095;104584;-74